createdAt,value
2022-08-01T00:03:52.802Z,22.90
2022-08-01T00:08:56.926Z,23.00
2022-08-01T00:13:59.638Z,23.10
2022-08-01T00:19:02.318Z,23.00
2022-08-01T00:24:06.770Z,22.80
2022-08-01T00:30:12.332Z,22.70
2022-08-01T00:34:39.847Z,22.70
2022-08-01T00:39:43.986Z,22.70
2022-08-01T00:44:46.673Z,22.60
2022-08-01T00:49:49.371Z,22.50
2022-08-01T00:54:53.512Z,22.40
2022-08-01T00:59:56.283Z,22.50
2022-08-01T01:04:59.244Z,22.30
2022-08-01T01:10:12.153Z,22.10
2022-08-01T01:15:19.869Z,21.90
2022-08-01T01:20:25.785Z,21.70
2022-08-01T01:25:42.867Z,21.50
2022-08-01T01:30:50.889Z,21.10
2022-08-01T01:35:59.662Z,20.90
2022-08-01T01:41:05.801Z,20.90
2022-08-01T01:46:12.612Z,20.90
2022-08-01T01:51:16.968Z,20.90
2022-08-01T01:56:21.908Z,20.80
2022-08-01T02:01:58.650Z,20.80
2022-08-01T02:06:54.237Z,20.70
2022-08-01T02:12:07.913Z,20.60
2022-08-01T02:17:14.157Z,20.50
2022-08-01T02:22:23.070Z,20.60
2022-08-01T02:27:30.570Z,20.80
2022-08-01T02:32:41.239Z,21.00
2022-08-01T02:37:47.222Z,21.20
2022-08-01T02:42:52.808Z,21.30
2022-08-01T02:48:03.251Z,21.30
2022-08-01T02:53:07.582Z,21.30
2022-08-01T02:58:12.097Z,21.50
2022-08-01T03:03:18.471Z,21.60
2022-08-01T03:08:23.477Z,21.60
2022-08-01T03:13:29.135Z,21.80
2022-08-01T03:18:34.484Z,21.60
2022-08-01T03:23:39.249Z,21.50
2022-08-01T03:28:43.849Z,21.40
2022-08-01T03:33:47.859Z,21.40
2022-08-01T03:38:52.729Z,21.40
2022-08-01T03:43:58.679Z,21.40
2022-08-01T03:49:07.987Z,21.40
2022-08-01T03:54:12.303Z,21.30
2022-08-01T03:59:16.777Z,21.30
2022-08-01T04:04:21.145Z,21.30
2022-08-01T04:09:24.286Z,21.20
2022-08-01T04:14:26.985Z,21.30
2022-08-01T04:19:31.058Z,21.40
2022-08-01T04:24:36.220Z,21.40
2022-08-01T04:29:39.961Z,21.50
2022-08-01T04:34:47.078Z,21.70
2022-08-01T04:39:52.327Z,21.90
2022-08-01T04:44:55.367Z,21.90
2022-08-01T04:50:00.029Z,22.10
2022-08-01T04:55:02.944Z,22.20
2022-08-01T05:00:07.488Z,22.30
2022-08-01T05:05:13.695Z,22.40
2022-08-01T05:10:16.532Z,22.50
2022-08-01T05:15:19.433Z,22.00
2022-08-01T05:20:23.557Z,22.10
2022-08-01T05:25:56.247Z,22.00
2022-08-01T05:30:49.022Z,22.10
2022-08-01T05:35:53.077Z,21.50
2022-08-01T05:40:55.851Z,21.40
2022-08-01T05:45:59.278Z,21.80
2022-08-01T05:51:03.372Z,22.40
2022-08-01T05:56:06.600Z,23.10
2022-08-01T06:01:09.314Z,23.50
2022-08-01T06:06:15.001Z,23.40
2022-08-01T06:11:17.809Z,23.20
2022-08-01T06:16:20.562Z,23.00
2022-08-01T06:21:24.680Z,22.50
2022-08-01T06:26:27.474Z,22.30
2022-08-01T06:31:33.511Z,22.50
2022-08-01T06:36:37.864Z,22.50
2022-08-01T06:41:42.409Z,22.50
2022-08-01T06:46:45.090Z,22.60
2022-08-01T06:51:49.198Z,22.70
2022-08-01T06:56:51.865Z,22.60
2022-08-01T07:01:54.556Z,22.50
2022-08-01T07:06:59.079Z,22.70
2022-08-01T07:12:01.751Z,22.40
2022-08-01T07:17:04.635Z,21.80
2022-08-01T07:22:08.916Z,21.30
2022-08-01T07:27:24.298Z,20.60
2022-08-01T07:32:30.246Z,20.40
2022-08-01T07:37:48.431Z,20.60
2022-08-01T07:42:52.129Z,20.80
2022-08-01T07:47:54.939Z,21.20
2022-08-01T07:52:59.018Z,21.50
2022-08-01T07:58:02.093Z,22.20
2022-08-01T08:03:04.826Z,23.00
2022-08-01T08:08:09.865Z,23.80
2022-08-01T08:13:12.751Z,25.60
2022-08-01T08:18:15.856Z,26.10
2022-08-01T08:23:42.596Z,25.90
2022-08-01T08:28:47.310Z,25.40
2022-08-01T08:33:49.956Z,25.40
2022-08-01T08:38:53.963Z,26.20
2022-08-01T08:43:57.791Z,27.80
2022-08-01T08:49:01.659Z,28.30
2022-08-01T08:54:07.385Z,27.40
2022-08-01T08:59:10.163Z,25.90
2022-08-01T09:04:13.390Z,25.90
2022-08-01T09:09:17.413Z,27.80
2022-08-01T09:14:24.853Z,29.50
2022-08-01T09:19:39.914Z,29.80
2022-08-01T09:24:59.528Z,28.60
2022-08-01T09:30:14.061Z,28.00
2022-08-01T09:35:30.823Z,28.30
2022-08-01T09:40:49.350Z,30.30
2022-08-01T09:45:53.268Z,30.50
2022-08-01T09:51:04.473Z,32.50
2022-08-01T09:56:14.384Z,35.10
2022-08-01T10:01:17.149Z,32.00
2022-08-01T10:06:24.725Z,31.80
2022-08-01T10:11:36.034Z,31.30
2022-08-01T10:16:40.029Z,29.80
2022-08-01T10:21:56.753Z,29.20
2022-08-01T10:27:08.987Z,28.80
2022-08-01T10:32:12.345Z,28.40
2022-08-01T10:37:15.889Z,28.20
2022-08-01T10:42:20.174Z,30.00
2022-08-01T10:47:50.839Z,29.20
2022-08-01T10:53:16.062Z,27.90
2022-08-01T10:58:25.215Z,27.10
2022-08-01T11:03:56.210Z,27.30
2022-08-01T11:09:00.884Z,27.90
2022-08-01T11:14:10.439Z,27.90
2022-08-01T11:19:13.469Z,28.60
2022-08-01T11:24:16.150Z,32.50
2022-08-01T11:29:22.387Z,34.50
2022-08-01T11:34:54.356Z,35.00
2022-08-01T11:40:18.237Z,37.90
2022-08-01T11:45:23.568Z,38.80
2022-08-01T11:50:34.249Z,39.00
2022-08-01T11:55:37.027Z,35.20
2022-08-01T12:00:43.883Z,31.80
2022-08-01T12:05:49.680Z,27.90
2022-08-01T12:10:52.486Z,25.00
2022-08-01T12:16:11.683Z,24.30
2022-08-01T12:21:14.420Z,24.90
2022-08-01T12:26:28.471Z,28.10
2022-08-01T12:39:00.133Z,39.20
2022-08-01T12:44:25.987Z,33.90
2022-08-01T12:50:15.397Z,33.60
2022-08-01T12:55:58.121Z,40.00
2022-08-01T13:07:25.357Z,40.00
2022-08-01T13:12:54.472Z,37.30
2022-08-01T13:24:03.591Z,35.70
2022-08-01T13:29:46.693Z,37.70
2022-08-01T13:41:19.571Z,34.80
2022-08-01T13:47:31.646Z,36.00
2022-08-01T13:53:37.252Z,36.40
2022-08-01T13:59:11.712Z,36.20
2022-08-01T14:05:12.465Z,39.30
2022-08-01T14:10:41.836Z,40.60
2022-08-01T14:22:29.833Z,39.50
2022-08-01T14:28:48.249Z,40.00
2022-08-01T14:33:52.156Z,36.80
2022-08-01T14:39:00.354Z,38.40
2022-08-01T14:44:14.410Z,39.00
2022-08-01T14:49:28.131Z,37.30
2022-08-01T14:54:35.301Z,35.80
2022-08-01T14:59:55.274Z,35.10
2022-08-01T15:04:59.258Z,34.00
2022-08-01T15:10:03.416Z,35.00
2022-08-01T15:15:13.726Z,34.30
2022-08-01T15:50:45.685Z,31.40
2022-08-01T16:09:31.584Z,31.40
2022-08-01T16:27:09.552Z,29.70
2022-08-01T16:32:17.010Z,29.90
2022-08-01T16:37:31.008Z,30.00
2022-08-01T16:42:34.104Z,31.50
2022-08-01T16:47:38.636Z,32.50
2022-08-01T16:52:42.043Z,32.30
2022-08-01T16:57:45.176Z,31.30
2022-08-01T17:02:50.047Z,30.40
2022-08-01T17:07:53.420Z,29.70
2022-08-01T17:12:56.935Z,29.10
2022-08-01T17:18:08.546Z,28.50
2022-08-01T17:23:11.673Z,28.20
2022-08-01T17:28:16.548Z,28.30
2022-08-01T17:33:21.379Z,28.60
2022-08-01T17:38:27.012Z,28.70
2022-08-01T17:43:29.906Z,28.20
2022-08-01T17:48:34.041Z,27.90
2022-08-01T17:53:37.048Z,27.60
2022-08-01T17:58:59.306Z,27.40
2022-08-01T18:04:03.573Z,27.00
2022-08-01T18:09:11.333Z,26.70
2022-08-01T18:14:19.425Z,26.40
2022-08-01T18:19:24.748Z,26.10
2022-08-01T18:24:28.009Z,25.90
2022-08-01T18:29:46.965Z,25.70
2022-08-01T18:34:52.393Z,25.40
2022-08-01T18:39:55.066Z,25.20
2022-08-01T18:44:58.447Z,25.00
2022-08-01T18:50:02.914Z,24.80
2022-08-01T18:55:08.188Z,24.50
2022-08-01T19:00:14.076Z,24.40
2022-08-01T19:05:18.156Z,24.20
2022-08-01T19:10:20.866Z,24.10
2022-08-01T19:15:23.574Z,23.90
2022-08-01T19:20:27.802Z,23.60
2022-08-01T19:25:30.664Z,23.20
2022-08-01T19:30:47.026Z,23.00
2022-08-01T19:35:58.071Z,22.90
2022-08-01T19:41:03.319Z,22.90
2022-08-01T19:46:06.378Z,22.80
2022-08-01T19:51:32.803Z,22.70
2022-08-01T19:56:39.767Z,22.50
2022-08-01T20:01:43.065Z,22.40
2022-08-01T20:06:47.946Z,22.20
2022-08-01T20:11:52.272Z,22.00
2022-08-01T20:16:57.162Z,22.00
2022-08-01T20:22:04.418Z,21.80
2022-08-01T20:27:08.791Z,21.70
2022-08-01T20:32:12.095Z,21.60
2022-08-01T20:37:19.601Z,21.60
2022-08-01T20:42:42.735Z,21.50
2022-08-01T20:47:46.890Z,21.40
2022-08-01T20:52:51.739Z,21.70
2022-08-01T20:57:56.425Z,21.80
2022-08-01T21:03:11.812Z,21.60
2022-08-01T21:08:22.299Z,21.50
2022-08-01T21:13:32.515Z,21.80
2022-08-01T21:18:38.829Z,21.70
2022-08-01T21:23:48.920Z,21.60
2022-08-01T21:28:56.559Z,21.50
2022-08-01T21:34:03.786Z,21.40
2022-08-01T21:39:08.231Z,21.50
2022-08-01T21:44:14.526Z,21.40
2022-08-01T21:49:17.259Z,21.30
2022-08-01T21:54:29.228Z,21.00
2022-08-01T21:59:41.608Z,20.70
2022-08-01T22:04:51.874Z,20.50
2022-08-01T22:09:58.147Z,20.40
2022-08-01T22:15:03.747Z,20.50
2022-08-01T22:20:07.965Z,20.50
2022-08-01T22:25:13.276Z,20.50
2022-08-01T22:30:17.571Z,20.50
2022-08-01T22:35:21.335Z,20.30
2022-08-01T22:40:25.505Z,20.20
2022-08-01T22:45:40.463Z,20.50
2022-08-01T22:50:47.575Z,20.50
2022-08-01T22:55:58.518Z,20.40
2022-08-01T23:01:03.933Z,20.80
2022-08-01T23:06:11.491Z,20.70
2022-08-01T23:11:16.059Z,20.20
2022-08-01T23:16:19.638Z,20.00
2022-08-01T23:21:23.552Z,20.00
2022-08-01T23:26:29.426Z,20.00
2022-08-01T23:32:00.241Z,19.90
2022-08-01T23:36:56.346Z,19.90
2022-08-01T23:42:04.175Z,19.80
2022-08-01T23:47:10.274Z,19.60
2022-08-01T23:52:20.551Z,19.40
2022-08-01T23:57:25.784Z,19.50
